Time;durP1;ratioP1;P1;durP2;ratioP2;P2;SDS_P1;SDS_P2;PMS_P1;PMS_P2;Temp;Humidity;BMP_temperature;BMP_pressure;BME280_temperature;BME280_humidity;BME280_pressure;Samples;Min_cycle;Max_cycle;Signal;HPM_P1;HPM_P2
2022/01/06 00:00:13;;;;;;;19.88;3.03;;;3.10;99.90;;;;;;4892267;29;20135;-84
2022/01/06 00:03:16;;;;;;;19.58;2.03;;;3.00;99.90;;;;;;4879873;29;20471;-84
2022/01/06 00:05:56;;;;;;;23.58;3.13;;;2.90;99.90;;;;;;4944740;28;20042;-84
2022/01/06 00:08:22;;;;;;;19.83;2.35;;;2.90;99.90;;;;;;4942461;28;20590;-84
2022/01/06 00:10:51;;;;;;;28.60;3.08;;;2.80;99.90;;;;;;4943710;28;20057;-84
2022/01/06 00:13:25;;;;;;;19.20;2.35;;;2.80;99.90;;;;;;4932454;28;20555;-84
2022/01/06 00:16:05;;;;;;;26.33;2.97;;;2.80;99.90;;;;;;4934407;28;20047;-83
2022/01/06 00:23:18;;;;;;;28.20;2.35;;;2.70;99.90;;;;;;4947805;28;20074;-84
2022/01/06 00:24:28;;;;;;;21.58;2.60;;;2.60;99.90;;;;;;4997537;28;20467;-83
2022/01/06 00:26:57;;;;;;;27.10;2.88;;;2.50;99.90;;;;;;4969979;28;20352;-85
2022/01/06 00:29:24;;;;;;;23.10;2.45;;;2.50;99.90;;;;;;4980751;28;20069;-84
2022/01/06 00:31:50;;;;;;;31.58;3.42;;;2.50;99.90;;;;;;4969096;28;20053;-85
2022/01/06 00:34:16;;;;;;;22.92;2.80;;;2.50;99.90;;;;;;4976668;28;20532;-84
2022/01/06 00:36:43;;;;;;;23.67;2.50;;;2.50;99.90;;;;;;4974485;28;20057;-85
2022/01/06 00:39:10;;;;;;;25.42;3.28;;;2.50;99.90;;;;;;4952494;28;20046;-84
2022/01/06 00:41:37;;;;;;;28.77;2.13;;;2.50;99.90;;;;;;4963269;28;20045;-84
2022/01/06 00:44:07;;;;;;;14.20;2.55;;;2.50;99.90;;;;;;4982224;28;20134;-84
2022/01/06 00:46:33;;;;;;;31.80;3.22;;;2.50;99.90;;;;;;4955072;28;20069;-85
2022/01/06 00:48:59;;;;;;;29.40;2.75;;;2.50;99.90;;;;;;4972358;28;20428;-84
2022/01/06 00:51:25;;;;;;;24.98;2.63;;;2.50;99.90;;;;;;4967914;28;20116;-84
2022/01/06 00:53:50;;;;;;;20.15;3.17;;;2.50;99.90;;;;;;4967168;28;20069;-84
2022/01/06 00:56:16;;;;;;;22.05;2.70;;;2.50;99.90;;;;;;4934567;28;20129;-84
2022/01/06 00:58:42;;;;;;;24.63;2.83;;;2.60;99.90;;;;;;4980531;28;20066;-84
2022/01/06 01:01:08;;;;;;;21.80;2.75;;;2.60;99.90;;;;;;4978594;28;20031;-84
2022/01/06 01:03:33;;;;;;;25.23;2.80;;;2.60;99.90;;;;;;4952896;28;20042;-84
2022/01/06 01:06:02;;;;;;;26.70;2.88;;;2.60;99.90;;;;;;4956466;28;20078;-84
2022/01/06 01:08:28;;;;;;;28.45;2.58;;;2.60;99.90;;;;;;4954132;28;20532;-84
2022/01/06 01:10:56;;;;;;;18.15;2.45;;;2.60;99.90;;;;;;4954455;28;20114;-84
2022/01/06 01:13:30;;;;;;;18.58;2.75;;;2.60;99.90;;;;;;4983032;28;20061;-84
2022/01/06 01:16:00;;;;;;;25.05;2.42;;;2.50;99.90;;;;;;4983966;28;20046;-83
2022/01/06 01:18:26;;;;;;;24.23;2.33;;;2.40;99.90;;;;;;4956180;28;20044;-84
2022/01/06 01:20:54;;;;;;;22.90;2.15;;;2.30;99.90;;;;;;4984287;28;20632;-84
2022/01/06 01:23:21;;;;;;;18.67;2.10;;;2.20;99.90;;;;;;4978985;28;20046;-84
2022/01/06 01:25:47;;;;;;;15.38;1.95;;;2.10;99.90;;;;;;4968469;28;20497;-84
2022/01/06 01:28:15;;;;;;;15.93;1.65;;;2.10;99.90;;;;;;4994683;28;20097;-84
2022/01/06 01:31:19;;;;;;;25.17;2.25;;;2.10;99.90;;;;;;4980487;28;20039;-84
2022/01/06 01:33:30;;;;;;;23.40;2.13;;;2.00;99.90;;;;;;4981228;28;20379;-84
2022/01/06 01:35:55;;;;;;;19.80;2.47;;;2.00;99.90;;;;;;4951596;28;20053;-83
2022/01/06 01:38:21;;;;;;;23.70;3.58;;;1.90;99.90;;;;;;4950240;28;20050;-83
2022/01/06 01:40:47;;;;;;;17.02;2.15;;;1.90;99.90;;;;;;4957761;28;20357;-83
2022/01/06 01:43:13;;;;;;;24.05;2.38;;;1.90;99.90;;;;;;4989012;28;20050;-83
2022/01/06 01:45:45;;;;;;;22.05;2.65;;;1.80;99.90;;;;;;4956471;28;20034;-83
2022/01/06 01:48:18;;;;;;;;;;;1.80;99.90;;;;;;4957900;28;20065;-83
2022/01/06 01:50:44;;;;;;;16.77;2.47;;;1.70;99.90;;;;;;4984500;28;19945;-83
2022/01/06 01:53:10;;;;;;;22.33;2.85;;;1.70;99.90;;;;;;4958675;28;20054;-84
2022/01/06 01:55:36;;;;;;;21.00;2.28;;;1.70;99.90;;;;;;4959623;28;20059;-83
2022/01/06 01:58:03;;;;;;;24.70;2.28;;;1.70;99.90;;;;;;4989968;28;20225;-84
2022/01/06 02:00:30;;;;;;;15.25;1.50;;;1.70;99.90;;;;;;4969193;28;20041;-83
2022/01/06 02:02:56;;;;;;;14.98;1.73;;;1.70;99.90;;;;;;4969959;28;20041;-84
2022/01/06 02:05:26;;;;;;;32.38;3.03;;;1.70;99.90;;;;;;4979034;28;20069;-84
2022/01/06 02:07:58;;;;;;;21.13;2.45;;;1.70;99.90;;;;;;4976437;28;20125;-84
2022/01/06 02:10:25;;;;;;;14.97;1.90;;;1.60;99.90;;;;;;5001937;28;20122;-85
2022/01/06 02:12:54;;;;;;;12.05;2.22;;;1.70;99.90;;;;;;5000332;28;20074;-84
2022/01/06 02:15:19;;;;;;;22.75;2.63;;;1.70;99.90;;;;;;4955861;28;20069;-84
2022/01/06 02:17:47;;;;;;;25.58;2.13;;;1.70;99.90;;;;;;4953528;28;20353;-83
2022/01/06 02:20:15;;;;;;;18.98;2.50;;;1.70;99.90;;;;;;4982183;28;20144;-84
2022/01/06 02:22:42;;;;;;;31.30;2.58;;;1.70;99.90;;;;;;4983034;28;20346;-84
2022/01/06 02:25:17;;;;;;;26.10;2.97;;;1.70;99.90;;;;;;4983821;28;20038;-84
2022/01/06 02:27:45;;;;;;;19.15;2.40;;;1.70;99.90;;;;;;4981151;28;20043;-84
2022/01/06 02:30:12;;;;;;;24.98;3.28;;;1.70;99.90;;;;;;4965378;28;20077;-84
2022/01/06 02:32:38;;;;;;;31.35;3.38;;;1.70;99.90;;;;;;4950982;28;20117;-84
2022/01/06 02:35:13;;;;;;;26.60;2.38;;;1.70;99.90;;;;;;4984482;28;20457;-84
2022/01/06 02:37:39;;;;;;;20.58;2.10;;;1.60;99.90;;;;;;4973788;28;20496;-84
2022/01/06 02:40:14;;;;;;;28.17;4.00;;;1.60;99.90;;;;;;4963562;28;20391;-84
2022/01/06 02:42:46;;;;;;;23.75;2.17;;;1.60;99.90;;;;;;4967985;28;20391;-83
2022/01/06 02:45:13;;;;;;;20.60;2.38;;;1.70;99.90;;;;;;4984006;28;20274;-84
2022/01/06 02:47:40;;;;;;;28.00;2.78;;;1.60;99.90;;;;;;4959235;28;20034;-84
2022/01/06 02:50:08;;;;;;;25.90;3.15;;;1.60;99.90;;;;;;4984850;28;20070;-85
2022/01/06 02:52:34;;;;;;;28.98;2.75;;;1.60;99.90;;;;;;4956807;28;20065;-84
2022/01/06 02:55:00;;;;;;;24.55;2.50;;;1.60;99.90;;;;;;4965761;28;20042;-84
2022/01/06 02:57:25;;;;;;;22.17;2.60;;;1.60;99.90;;;;;;4965925;28;20038;-84
2022/01/06 02:59:51;;;;;;;23.83;3.40;;;1.60;99.90;;;;;;4937709;28;20038;-84
2022/01/06 03:02:17;;;;;;;40.70;2.60;;;1.60;99.90;;;;;;4951448;28;20038;-84
2022/01/06 03:04:46;;;;;;;36.47;3.47;;;1.60;99.90;;;;;;4980261;28;20057;-84
2022/01/06 03:07:12;;;;;;;29.50;2.55;;;1.60;99.90;;;;;;4961616;28;20129;-84
2022/01/06 03:09:42;;;;;;;19.08;3.45;;;1.70;99.90;;;;;;4996770;28;20125;-85
2022/01/06 03:12:20;;;;;;;21.27;2.97;;;1.60;99.90;;;;;;4998243;28;20072;-84
2022/01/06 03:14:53;;;;;;;27.13;3.03;;;1.70;99.90;;;;;;4978481;28;20031;-85
2022/01/06 03:17:19;;;;;;;24.05;2.22;;;1.70;99.90;;;;;;4956272;28;20318;-84
2022/01/06 03:19:45;;;;;;;21.65;2.95;;;1.70;99.90;;;;;;4947578;28;20046;-85
2022/01/06 03:22:11;;;;;;;22.90;2.38;;;1.80;99.90;;;;;;4977745;28;20046;-84
2022/01/06 03:24:37;;;;;;;19.75;2.80;;;1.70;99.90;;;;;;4949953;28;20045;-85
2022/01/06 03:27:05;;;;;;;23.42;2.33;;;1.70;99.90;;;;;;4960925;28;20042;-84
2022/01/06 03:29:31;;;;;;;25.55;2.70;;;1.60;99.90;;;;;;4964843;28;20034;-84
2022/01/06 03:31:58;;;;;;;24.00;2.50;;;1.60;99.90;;;;;;4979184;28;20512;-84
2022/01/06 03:34:26;;;;;;;15.20;2.10;;;1.50;99.90;;;;;;4964508;28;20084;-85
2022/01/06 03:36:52;;;;;;;25.48;2.10;;;1.50;99.90;;;;;;4950574;28;20042;-84
2022/01/06 03:39:18;;;;;;;28.48;3.05;;;1.40;99.90;;;;;;4963604;28;20113;-84
2022/01/06 03:41:44;;;;;;;23.50;2.20;;;1.40;99.90;;;;;;4968283;28;20069;-84
2022/01/06 03:44:09;;;;;;;21.23;2.78;;;1.30;99.90;;;;;;4959605;28;20042;-84
2022/01/06 03:46:35;;;;;;;18.52;2.63;;;1.30;99.90;;;;;;4952025;28;20048;-84
2022/01/06 03:49:01;;;;;;;22.05;2.30;;;1.30;99.90;;;;;;4960184;28;20401;-84
2022/01/06 03:51:27;;;;;;;29.60;2.75;;;1.10;99.90;;;;;;4978880;28;20094;-84
2022/01/06 03:53:58;;;;;;;17.15;1.90;;;1.10;99.90;;;;;;4978911;28;20100;-84
2022/01/06 03:56:23;;;;;;;23.23;2.90;;;1.10;99.90;;;;;;4980465;28;20084;-84
2022/01/06 03:58:52;;;;;;;18.50;2.47;;;1.00;99.90;;;;;;4991017;28;20101;-84
2022/01/06 04:01:18;;;;;;;17.75;2.38;;;1.00;99.90;;;;;;4964863;28;20034;-84
2022/01/06 04:03:47;;;;;;;24.70;2.22;;;0.90;99.90;;;;;;4993114;28;20038;-85
2022/01/06 04:06:16;;;;;;;30.40;2.78;;;0.90;99.90;;;;;;4965560;28;20413;-84
2022/01/06 04:08:42;;;;;;;27.88;2.58;;;0.80;99.90;;;;;;4994767;28;20080;-84
2022/01/06 04:11:08;;;;;;;27.80;2.92;;;0.80;99.90;;;;;;4975991;28;20497;-84
2022/01/06 04:13:34;;;;;;;20.98;2.13;;;0.80;99.90;;;;;;4948537;28;20039;-84
2022/01/06 04:16:02;;;;;;;29.38;2.50;;;0.80;99.90;;;;;;4975372;28;20065;-84
2022/01/06 04:18:31;;;;;;;30.58;2.65;;;0.70;99.90;;;;;;4952605;28;20060;-84
2022/01/06 04:20:59;;;;;;;31.92;2.63;;;0.70;99.90;;;;;;4966804;28;20041;-84
2022/01/06 04:23:25;;;;;;;28.33;2.58;;;0.70;99.90;;;;;;4980309;28;20105;-84
2022/01/06 04:25:51;;;;;;;22.85;3.03;;;0.60;99.90;;;;;;4964807;28;20045;-84
2022/01/06 04:28:17;;;;;;;18.98;3.72;;;0.60;99.90;;;;;;4979190;28;20037;-84
2022/01/06 04:30:42;;;;;;;21.45;2.58;;;0.60;99.90;;;;;;4951207;28;20030;-84
2022/01/06 04:33:08;;;;;;;26.13;2.50;;;0.60;99.90;;;;;;4996009;28;20061;-84
2022/01/06 04:35:34;;;;;;;28.63;2.35;;;0.60;99.90;;;;;;4960687;28;20072;-84
2022/01/06 04:38:00;;;;;;;28.00;2.45;;;0.50;99.90;;;;;;4967377;28;20053;-85
2022/01/06 04:40:26;;;;;;;23.23;2.72;;;0.50;99.90;;;;;;4963320;28;20470;-84
2022/01/06 04:42:52;;;;;;;21.27;2.30;;;0.50;99.90;;;;;;4961464;28;20553;-83
2022/01/06 04:45:18;;;;;;;31.67;2.85;;;0.40;99.90;;;;;;4969628;28;20125;-84
2022/01/06 04:47:43;;;;;;;28.98;2.83;;;0.50;99.90;;;;;;4968513;28;20070;-84
2022/01/06 04:50:09;;;;;;;18.73;2.20;;;0.50;99.90;;;;;;4968829;28;20034;-84
2022/01/06 04:52:35;;;;;;;29.50;3.25;;;0.40;99.90;;;;;;4951481;28;20049;-84
2022/01/06 04:55:01;;;;;;;25.85;2.50;;;0.40;99.90;;;;;;4967334;28;20038;-84
2022/01/06 04:57:27;;;;;;;39.55;3.05;;;0.40;99.90;;;;;;4950257;28;20384;-83
2022/01/06 04:59:53;;;;;;;32.78;2.70;;;0.40;99.90;;;;;;4952273;28;20030;-83
2022/01/06 05:02:18;;;;;;;30.25;2.47;;;0.30;99.90;;;;;;4996476;28;20030;-84
2022/01/06 05:04:44;;;;;;;23.33;2.42;;;0.30;99.90;;;;;;4961604;28;20105;-84
2022/01/06 05:07:10;;;;;;;33.70;2.75;;;0.30;99.90;;;;;;4967863;28;20104;-84
2022/01/06 05:09:36;;;;;;;35.90;3.28;;;0.20;99.90;;;;;;4981647;28;20531;-84
2022/01/06 05:12:04;;;;;;;26.63;2.55;;;0.20;99.90;;;;;;4981142;28;20061;-84
2022/01/06 05:14:30;;;;;;;25.65;2.97;;;0.10;99.90;;;;;;4968231;28;20347;-84
2022/01/06 05:16:56;;;;;;;25.50;2.60;;;0.20;99.90;;;;;;4969738;28;20497;-84
2022/01/06 05:19:23;;;;;;;33.05;2.90;;;0.10;99.90;;;;;;4990414;28;20276;-84
2022/01/06 05:21:51;;;;;;;28.25;2.38;;;0.10;99.90;;;;;;4968673;28;20497;-84
2022/01/06 05:24:18;;;;;;;24.85;2.15;;;0.10;99.90;;;;;;4961709;28;20331;-84
2022/01/06 05:26:44;;;;;;;28.80;2.45;;;0.00;99.90;;;;;;4967103;28;20053;-84
2022/01/06 05:29:13;;;;;;;32.67;3.17;;;0.10;99.90;;;;;;4953118;28;20046;-84
2022/01/06 05:31:40;;;;;;;28.33;3.13;;;0.10;99.90;;;;;;4963751;28;20440;-84
2022/01/06 05:34:09;;;;;;;31.05;5.38;;;0.10;99.90;;;;;;4950406;28;20046;-84
2022/01/06 05:36:35;;;;;;;24.52;3.55;;;0.00;99.90;;;;;;4960615;28;20054;-84
2022/01/06 05:39:04;;;;;;;28.05;2.95;;;0.10;99.90;;;;;;4968921;28;20050;-84
2022/01/06 05:41:30;;;;;;;27.88;2.38;;;0.10;99.90;;;;;;4967675;28;20553;-84
2022/01/06 05:43:56;;;;;;;27.10;2.22;;;0.10;99.90;;;;;;4950998;28;20047;-84
2022/01/06 05:46:22;;;;;;;18.02;2.38;;;0.10;99.90;;;;;;4979351;28;20035;-84
2022/01/06 05:48:48;;;;;;;26.25;3.03;;;0.00;99.90;;;;;;4951834;28;20404;-84
2022/01/06 05:51:14;;;;;;;28.73;2.45;;;0.00;99.90;;;;;;4997148;28;20045;-84
2022/01/06 05:53:40;;;;;;;20.90;3.38;;;0.00;99.90;;;;;;4953292;28;20056;-84
2022/01/06 05:56:06;;;;;;;21.75;2.05;;;0.00;99.90;;;;;;4956661;28;20509;-84
2022/01/06 05:58:32;;;;;;;23.10;2.33;;;0.00;99.90;;;;;;4947902;28;20049;-84
2022/01/06 06:00:58;;;;;;;19.05;3.15;;;0.00;99.90;;;;;;4962672;28;20121;-84
2022/01/06 06:03:27;;;;;;;22.60;2.83;;;0.00;99.90;;;;;;4949938;28;20054;-84
2022/01/06 06:05:54;;;;;;;20.58;2.47;;;0.00;99.90;;;;;;4973182;28;20603;-84
2022/01/06 06:08:20;;;;;;;26.52;3.33;;;0.00;99.90;;;;;;4946416;28;20404;-83
2022/01/06 06:10:45;;;;;;;20.13;3.30;;;0.00;99.90;;;;;;4946629;28;20130;-84
2022/01/06 06:13:11;;;;;;;21.65;2.72;;;0.00;99.90;;;;;;4979095;28;20558;-83
2022/01/06 06:15:37;;;;;;;22.10;3.08;;;0.00;99.90;;;;;;4934959;28;20112;-84
2022/01/06 06:18:05;;;;;;;29.42;3.30;;;0.00;99.90;;;;;;4978965;28;20505;-84
2022/01/06 06:20:31;;;;;;;28.83;2.97;;;0.00;99.90;;;;;;4967193;28;20042;-84
2022/01/06 06:22:57;;;;;;;22.55;3.10;;;0.00;99.90;;;;;;4963333;28;20038;-84
2022/01/06 06:25:23;;;;;;;32.10;2.47;;;-0.10;99.90;;;;;;4973499;28;20130;-84
2022/01/06 06:27:49;;;;;;;25.50;2.65;;;-0.10;99.90;;;;;;4966620;28;20052;-84
2022/01/06 06:30:15;;;;;;;12.07;2.38;;;-0.10;99.90;;;;;;4958360;28;20049;-83
2022/01/06 06:32:40;;;;;;;23.80;2.92;;;-0.20;99.90;;;;;;4960271;28;20069;-83
2022/01/06 06:35:07;;;;;;;34.35;2.80;;;-0.20;99.90;;;;;;4972207;28;20053;-84
2022/01/06 06:37:33;;;;;;;33.50;2.13;;;-0.20;99.90;;;;;;4950196;28;20433;-83
2022/01/06 06:39:59;;;;;;;23.85;2.67;;;-0.20;99.90;;;;;;4960212;28;20035;-83
2022/01/06 06:42:31;;;;;;;30.30;2.78;;;-0.10;99.90;;;;;;4984516;28;20315;-84
2022/01/06 06:44:57;;;;;;;28.70;3.25;;;-0.20;99.90;;;;;;4996358;28;20041;-84
2022/01/06 06:47:23;;;;;;;20.35;2.10;;;-0.20;99.90;;;;;;4976911;28;20055;-84
2022/01/06 06:49:49;;;;;;;23.23;2.15;;;-0.30;99.90;;;;;;4950696;28;20515;-84
2022/01/06 06:52:15;;;;;;;26.67;3.63;;;-0.20;99.90;;;;;;4981267;28;20085;-84
2022/01/06 06:54:41;;;;;;;29.70;2.63;;;-0.30;99.90;;;;;;4979245;28;20054;-84
2022/01/06 06:57:08;;;;;;;17.75;2.15;;;-0.30;99.90;;;;;;4970240;28;20038;-84
2022/01/06 06:59:34;;;;;;;21.38;2.42;;;-0.30;99.90;;;;;;4945700;28;20409;-84
2022/01/06 07:01:59;;;;;;;22.45;2.33;;;-0.30;99.90;;;;;;4975719;28;20073;-84
2022/01/06 07:04:25;;;;;;;31.20;3.10;;;-0.30;99.90;;;;;;4967420;28;20524;-84
2022/01/06 07:06:51;;;;;;;23.58;2.70;;;-0.30;99.90;;;;;;4940433;28;20065;-84
2022/01/06 07:09:16;;;;;;;23.58;2.40;;;-0.30;99.90;;;;;;4937234;28;20030;-84
2022/01/06 07:11:42;;;;;;;21.83;2.65;;;-0.30;99.90;;;;;;4926722;28;20992;-85
2022/01/06 07:14:08;;;;;;;26.35;3.00;;;-0.30;99.90;;;;;;4949211;28;20038;-85
2022/01/06 07:16:34;;;;;;;28.73;2.35;;;-0.30;99.90;;;;;;4965445;28;20064;-84
2022/01/06 07:18:59;;;;;;;23.10;2.88;;;-0.20;99.90;;;;;;4978648;28;20034;-84
2022/01/06 07:21:25;;;;;;;28.48;3.08;;;-0.20;99.90;;;;;;4957335;28;20038;-85
2022/01/06 07:23:52;;;;;;;26.98;2.42;;;-0.30;99.90;;;;;;4948134;28;20074;-85
2022/01/06 07:26:18;;;;;;;24.23;2.60;;;-0.20;99.90;;;;;;4968984;28;20069;-84
2022/01/06 07:28:44;;;;;;;25.05;2.80;;;-0.30;99.90;;;;;;4939481;28;20125;-84
2022/01/06 07:31:11;;;;;;;23.85;3.00;;;-0.20;99.90;;;;;;4961586;28;20324;-84
2022/01/06 07:33:37;;;;;;;20.65;2.67;;;-0.30;99.90;;;;;;4950098;28;20104;-84
2022/01/06 07:36:03;;;;;;;27.33;2.75;;;-0.30;99.90;;;;;;4990912;28;20034;-84
2022/01/06 07:38:29;;;;;;;22.58;3.03;;;-0.40;99.90;;;;;;4936167;28;20043;-84
2022/01/06 07:40:55;;;;;;;17.92;3.00;;;-0.40;99.90;;;;;;4948491;28;20034;-84
2022/01/06 07:43:22;;;;;;;25.23;2.63;;;-0.40;99.90;;;;;;4991210;28;20038;-84
2022/01/06 07:45:49;;;;;;;21.35;2.53;;;-0.30;99.90;;;;;;4972258;28;20523;-84
2022/01/06 07:48:18;;;;;;;29.38;2.80;;;-0.20;99.90;;;;;;4997995;28;20038;-85
2022/01/06 07:50:45;;;;;;;31.58;2.65;;;-0.30;99.90;;;;;;4975706;28;20127;-84
2022/01/06 07:53:12;;;;;;;26.30;2.92;;;-0.40;99.90;;;;;;4960546;28;20057;-84
2022/01/06 07:55:38;;;;;;;16.15;2.55;;;-0.30;99.90;;;;;;4986000;28;20073;-84
2022/01/06 07:58:05;;;;;;;27.00;4.22;;;-0.30;99.90;;;;;;4956090;28;20042;-85
2022/01/06 08:00:31;;;;;;;29.20;3.40;;;-0.30;99.90;;;;;;4958474;28;20034;-84
2022/01/06 08:02:57;;;;;;;18.55;3.03;;;-0.30;99.90;;;;;;4973530;28;20069;-83
2022/01/06 08:05:25;;;;;;;24.05;2.78;;;-0.40;99.90;;;;;;4964873;28;20027;-84
2022/01/06 08:07:52;;;;;;;27.13;2.78;;;-0.40;99.90;;;;;;4969581;28;20038;-84
2022/01/06 08:10:18;;;;;;;22.40;2.63;;;-0.30;99.90;;;;;;4996014;28;20555;-84
2022/01/06 08:12:44;;;;;;;29.08;2.88;;;-0.40;99.90;;;;;;4964283;28;20058;-85
2022/01/06 08:15:10;;;;;;;22.02;3.00;;;-0.40;99.90;;;;;;4961586;28;20080;-84
2022/01/06 08:17:36;;;;;;;30.23;3.60;;;-0.30;99.90;;;;;;4978470;28;20039;-84
2022/01/06 08:20:07;;;;;;;27.33;3.13;;;-0.20;99.90;;;;;;4999958;28;20039;-85
2022/01/06 08:22:33;;;;;;;30.42;4.82;;;-0.20;99.90;;;;;;4961973;28;20053;-84
2022/01/06 08:24:59;;;;;;;32.53;3.90;;;-0.20;99.90;;;;;;4950491;28;20034;-84
2022/01/06 08:27:25;;;;;;;24.60;2.90;;;-0.20;99.90;;;;;;4978048;28;20125;-85
2022/01/06 08:29:52;;;;;;;20.52;3.28;;;-0.10;99.90;;;;;;4965079;28;20033;-84
2022/01/06 08:32:18;;;;;;;22.13;3.17;;;-0.10;99.90;;;;;;4969642;28;20042;-85
2022/01/06 08:34:44;;;;;;;29.17;3.80;;;-0.10;99.90;;;;;;4965449;28;20042;-84
2022/01/06 08:37:10;;;;;;;33.35;3.75;;;-0.10;99.90;;;;;;4963907;28;20524;-84
2022/01/06 08:39:36;;;;;;;21.25;2.70;;;0.00;99.90;;;;;;4947592;28;20035;-84
2022/01/06 08:42:02;;;;;;;19.10;2.50;;;0.00;99.90;;;;;;4965200;28;20030;-84
2022/01/06 08:44:28;;;;;;;23.80;2.80;;;0.00;99.90;;;;;;4953272;28;20129;-84
2022/01/06 08:46:55;;;;;;;25.65;3.67;;;0.10;99.90;;;;;;4956520;28;20113;-84
2022/01/06 08:49:24;;;;;;;28.98;2.90;;;0.10;99.90;;;;;;4973161;28;20109;-84
2022/01/06 08:51:52;;;;;;;29.63;3.78;;;0.10;99.90;;;;;;4977535;28;20046;-84
2022/01/06 08:54:18;;;;;;;20.77;2.95;;;0.20;99.90;;;;;;4976508;28;20054;-84
2022/01/06 08:56:44;;;;;;;23.20;3.38;;;0.20;99.90;;;;;;5253544;22;20187;-84
2022/01/06 08:59:10;;;;;;;20.02;2.90;;;0.20;99.90;;;;;;4995829;28;20081;-84
2022/01/06 09:01:36;;;;;;;26.15;3.47;;;0.30;99.90;;;;;;5001414;28;20434;-85
2022/01/06 09:04:03;;;;;;;30.88;3.58;;;0.30;99.90;;;;;;4985777;28;20052;-85
2022/01/06 09:06:29;;;;;;;21.83;3.10;;;0.30;99.90;;;;;;4998203;28;20076;-84
2022/01/06 09:08:54;;;;;;;20.52;2.67;;;0.40;99.90;;;;;;4979982;28;20041;-85
2022/01/06 09:11:20;;;;;;;29.02;3.15;;;0.40;99.90;;;;;;4996795;28;20083;-85
2022/01/06 09:13:46;;;;;;;23.33;3.35;;;0.50;99.90;;;;;;4997638;28;20092;-85
2022/01/06 09:16:13;;;;;;;32.38;3.85;;;0.50;99.90;;;;;;4994971;28;20503;-85
2022/01/06 09:18:40;;;;;;;38.90;3.53;;;0.60;99.90;;;;;;4996650;28;20124;-85
2022/01/06 09:21:07;;;;;;;20.75;3.08;;;0.60;99.90;;;;;;5009977;28;20496;-85
2022/01/06 09:23:33;;;;;;;28.05;3.13;;;0.70;99.90;;;;;;4981644;28;20050;-85
2022/01/06 09:26:00;;;;;;;32.20;4.32;;;0.70;99.90;;;;;;5001797;28;20519;-84
2022/01/06 09:28:26;;;;;;;27.55;3.78;;;0.80;99.90;;;;;;4994036;28;20037;-83
2022/01/06 09:30:53;;;;;;;27.50;3.50;;;0.80;99.90;;;;;;5001550;28;20262;-84
2022/01/06 09:33:20;;;;;;;23.02;3.42;;;0.90;99.90;;;;;;4972242;28;20038;-84
2022/01/06 09:35:52;;;;;;;35.15;3.60;;;1.00;99.90;;;;;;5000145;28;20069;-84
2022/01/06 09:38:26;;;;;;;31.10;3.40;;;1.10;99.90;;;;;;4981127;28;20056;-84
2022/01/06 09:41:00;;;;;;;26.00;3.15;;;1.20;99.90;;;;;;4999412;28;20073;-83
2022/01/06 09:43:30;;;;;;;22.20;4.30;;;1.30;99.90;;;;;;4984894;28;20061;-83
2022/01/06 09:46:08;;;;;;;18.88;2.97;;;1.40;99.90;;;;;;4980331;28;20468;-83
2022/01/06 09:48:42;;;;;;;24.55;3.92;;;1.50;99.90;;;;;;5007968;28;20269;-82
2022/01/06 09:51:11;;;;;;;20.58;3.25;;;1.60;99.90;;;;;;5000555;28;20080;-83
2022/01/06 09:53:40;;;;;;;24.88;3.47;;;1.70;99.90;;;;;;4999114;28;20041;-83
2022/01/06 09:56:18;;;;;;;34.08;3.22;;;1.80;99.90;;;;;;5017211;28;20519;-83
2022/01/06 09:58:44;;;;;;;25.00;4.18;;;1.90;99.90;;;;;;5019317;28;20392;-84
2022/01/06 10:01:13;;;;;;;28.90;4.30;;;2.10;99.90;;;;;;5003069;28;20142;-84
2022/01/06 10:03:41;;;;;;;29.45;3.47;;;2.10;99.90;;;;;;5001726;28;20072;-84
2022/01/06 10:06:27;;;;;;;18.20;3.53;;;2.20;99.90;;;;;;5006364;28;20034;-83
2022/01/06 10:09:34;;;;;;;21.67;3.17;;;2.30;99.90;;;;;;5016213;28;20034;-83
2022/01/06 10:12:13;;;;;;;25.55;4.05;;;2.40;99.90;;;;;;5014423;28;20103;-84
2022/01/06 10:14:50;;;;;;;23.38;3.70;;;2.40;99.90;;;;;;4983835;28;20120;-84
2022/01/06 10:17:57;;;;;;;24.98;3.30;;;2.40;99.90;;;;;;4995708;28;20106;-84
2022/01/06 10:20:58;;;;;;;;;;;;;;;;;;;;;
2022/01/06 10:23:35;;;;;;;26.92;3.85;;;2.60;99.90;;;;;;5001679;28;20116;-83
2022/01/06 10:26:25;;;;;;;24.10;3.78;;;2.60;99.90;;;;;;5013685;28;20042;-84
2022/01/06 10:28:57;;;;;;;23.25;3.55;;;2.70;99.90;;;;;;5018339;28;20053;-84
2022/01/06 10:31:31;;;;;;;27.07;4.23;;;2.70;99.90;;;;;;5002003;28;20041;-84
2022/01/06 10:34:10;;;;;;;30.73;3.65;;;2.90;99.90;;;;;;5005193;28;20038;-84
2022/01/06 10:37:35;;;;;;;17.02;3.58;;;2.90;99.90;;;;;;5002108;28;20041;-83
2022/01/06 10:40:43;;;;;;;25.20;3.88;;;3.10;99.90;;;;;;5002630;28;20057;-83
2022/01/06 10:43:11;;;;;;;17.40;3.22;;;3.20;99.90;;;;;;4984138;28;20081;-84
2022/01/06 10:46:01;;;;;;;20.00;3.70;;;3.30;99.90;;;;;;5006157;28;20073;-83
2022/01/06 10:48:35;;;;;;;29.50;3.85;;;3.40;99.90;;;;;;5001221;28;20532;-83
2022/01/06 10:54:22;;;;;;;26.00;4.35;;;3.50;99.90;;;;;;4998768;28;20049;-83
2022/01/06 10:57:07;;;;;;;34.83;4.13;;;3.70;99.90;;;;;;5003684;28;20033;-83
2022/01/06 10:59:36;;;;;;;28.10;4.00;;;3.70;99.90;;;;;;4987108;28;20048;-83
2022/01/06 11:02:04;;;;;;;41.28;4.80;;;3.80;99.90;;;;;;4968412;28;20599;-84
2022/01/06 11:04:32;;;;;;;29.00;4.22;;;3.90;99.90;;;;;;4998142;28;20072;-83
2022/01/06 11:06:58;;;;;;;26.25;3.45;;;4.00;99.90;;;;;;5005415;28;20038;-83
2022/01/06 11:09:30;;;;;;;26.85;4.57;;;4.10;99.90;;;;;;5049203;28;20639;-84
2022/01/06 11:14:27;;;;;;;23.67;3.22;;;4.30;99.90;;;;;;5008354;28;20037;-84
2022/01/06 11:16:56;;;;;;;25.65;4.00;;;4.30;99.90;;;;;;4981168;28;20037;-84
2022/01/06 11:19:23;;;;;;;21.40;3.70;;;4.50;99.90;;;;;;5008994;28;20491;-84
2022/01/06 11:21:50;;;;;;;25.90;3.35;;;4.50;99.90;;;;;;5022405;28;20557;-84
2022/01/06 11:24:38;;;;;;;26.02;3.72;;;4.60;99.90;;;;;;5095919;27;20482;-85
2022/01/06 11:27:11;;;;;;;22.75;3.47;;;4.70;99.90;;;;;;5080430;28;20032;-84
2022/01/06 11:29:41;;;;;;;26.75;2.78;;;4.80;99.90;;;;;;5089320;28;20442;-84
2022/01/06 11:32:22;;;;;;;22.67;3.33;;;4.90;99.90;;;;;;5084038;28;20032;-85
2022/01/06 11:35:00;;;;;;;18.23;2.60;;;5.00;99.90;;;;;;5090289;28;20032;-84
2022/01/06 11:37:37;;;;;;;25.48;3.47;;;5.10;99.90;;;;;;5096524;28;20028;-83
2022/01/06 11:40:16;;;;;;;25.80;3.08;;;5.10;99.90;;;;;;5061050;28;20375;-84
2022/01/06 11:43:02;;;;;;;28.80;3.22;;;5.30;99.90;;;;;;5061629;28;20367;-83
2022/01/06 11:45:30;;;;;;;22.13;3.10;;;5.30;99.90;;;;;;5099099;28;20044;-84
2022/01/06 11:48:10;;;;;;;23.25;2.63;;;5.50;99.90;;;;;;5066912;28;20102;-83
2022/01/06 11:50:53;;;;;;;21.25;2.65;;;5.50;99.90;;;;;;5070440;28;20131;-84
2022/01/06 11:53:38;;;;;;;20.63;2.45;;;5.70;99.90;;;;;;5080355;28;20075;-84
2022/01/06 11:56:15;;;;;;;26.77;3.88;;;5.80;99.90;;;;;;5077197;28;20204;-84
2022/01/06 11:58:41;;;;;;;24.63;2.70;;;5.90;99.90;;;;;;5041717;28;20047;-84
2022/01/06 12:01:14;;;;;;;19.60;2.67;;;6.00;99.90;;;;;;5075946;28;20040;-84
2022/01/06 12:03:42;;;;;;;24.40;3.28;;;6.00;99.90;;;;;;5060250;28;20365;-83
2022/01/06 12:06:20;;;;;;;21.92;2.70;;;6.10;99.90;;;;;;5073012;28;20046;-84
2022/01/06 12:08:46;;;;;;;27.15;3.42;;;6.20;99.90;;;;;;5111161;27;20423;-83
2022/01/06 12:11:22;;;;;;;22.10;3.13;;;6.20;99.90;;;;;;5073859;28;20036;-83
2022/01/06 12:13:48;;;;;;;15.05;2.40;;;6.20;99.90;;;;;;5073328;28;20081;-84
2022/01/06 12:16:35;;;;;;;22.95;3.10;;;6.30;99.90;;;;;;5049652;28;20043;-84
2022/01/06 12:19:17;;;;;;;22.95;3.40;;;6.30;99.90;;;;;;5078952;28;20040;-84
2022/01/06 12:21:43;;;;;;;20.98;3.50;;;6.40;99.90;;;;;;5082996;28;20510;-82
2022/01/06 12:24:11;;;;;;;26.45;4.00;;;6.50;99.90;;;;;;5062626;28;20058;-82
2022/01/06 12:26:39;;;;;;;23.90;2.75;;;6.60;99.90;;;;;;5071415;28;20028;-82
2022/01/06 12:29:17;;;;;;;15.57;2.70;;;6.60;99.90;;;;;;5077887;28;20135;-82
2022/01/06 12:31:44;;;;;;;20.00;2.97;;;6.70;99.90;;;;;;5096163;28;20047;-82
2022/01/06 12:34:11;;;;;;;26.23;3.85;;;6.70;99.90;;;;;;5068585;28;21057;-82
2022/01/06 12:36:42;;;;;;;18.00;3.08;;;7.00;99.90;;;;;;5029760;28;20038;-83
2022/01/06 12:39:11;;;;;;;18.73;3.40;;;7.20;99.90;;;;;;5075273;28;20040;-83
2022/01/06 12:41:39;;;;;;;21.35;3.22;;;7.40;99.90;;;;;;5061860;28;20044;-82
2022/01/06 12:44:06;;;;;;;24.08;3.42;;;7.70;99.90;;;;;;5040204;28;20036;-82
2022/01/06 12:46:37;;;;;;;29.88;3.85;;;8.20;99.90;;;;;;5048594;28;20040;-83
2022/01/06 12:49:07;;;;;;;16.75;2.67;;;8.70;99.90;;;;;;5048560;28;20046;-84
2022/01/06 12:51:38;;;;;;;19.08;3.15;;;8.80;99.90;;;;;;5081949;28;20483;-83
2022/01/06 12:54:35;;;;;;;16.83;2.90;;;8.70;99.90;;;;;;5082084;22;20043;-83
2022/01/06 12:57:13;;;;;;;19.05;2.97;;;8.60;99.90;;;;;;4983235;28;20567;-83
2022/01/06 12:59:49;;;;;;;20.95;3.60;;;8.60;99.90;;;;;;5002812;28;20037;-83
2022/01/06 13:02:27;;;;;;;21.98;3.45;;;8.70;99.90;;;;;;5005939;28;20044;-84
2022/01/06 13:05:14;;;;;;;18.23;2.78;;;8.80;99.90;;;;;;5011759;28;20078;-83